Terminal Aerodrome Forecast
Issued by NWS

Current Version | Previous Version | Text Only | Print | Product List | Glossary On
Versions: 1 2 3 4 5 6 7 8 9 10 11 12 13 14 15 16 17 18 19 20 21 22 23
000
FTUS43 KMKX 201738
TAFUES
TAF
KUES 201738Z 2018/2118 20010KT P6SM BKN150
     FM210600 20006KT P6SM SCT070 BKN100
     FM211200 23006KT 4SM BR VCSH SCT070 OVC100
     FM211500 25008KT P6SM VCSH BKN050 OVC100=

USA.gov is the U.S. government's official web portal to all federal, state and local government web resources and services.